createdAt,value
2023-04-26T00:01:06.896Z,2.43
2023-04-26T00:03:34.734Z,1.87
2023-04-26T00:06:05.794Z,1.63
2023-04-26T00:08:33.428Z,2.00
2023-04-26T00:11:01.261Z,1.60
2023-04-26T00:13:28.999Z,2.87
2023-04-26T00:15:56.694Z,1.87
2023-04-26T00:18:24.480Z,1.90
2023-04-26T00:20:52.050Z,1.20
2023-04-26T00:23:19.929Z,2.17
2023-04-26T00:25:47.527Z,1.87
2023-04-26T00:28:15.792Z,1.30
2023-04-26T00:30:48.840Z,1.43
2023-04-26T00:33:16.665Z,1.97
2023-04-26T00:35:44.322Z,1.57
2023-04-26T00:38:11.955Z,1.97
2023-04-26T00:40:39.703Z,1.50
2023-04-26T00:43:07.528Z,2.20
2023-04-26T00:45:35.824Z,1.60
2023-04-26T00:48:03.926Z,2.00
2023-04-26T00:50:32.537Z,2.00
2023-04-26T00:53:02.651Z,1.87
2023-04-26T00:55:30.770Z,1.67
2023-04-26T00:57:58.326Z,1.90
2023-04-26T01:00:26.109Z,1.53
2023-04-26T01:02:53.915Z,1.70
2023-04-26T01:05:21.671Z,1.53
2023-04-26T01:07:49.341Z,1.63
2023-04-26T01:10:18.049Z,1.73
2023-04-26T01:12:45.942Z,1.67
2023-04-26T01:15:14.118Z,1.93
2023-04-26T01:17:47.233Z,1.50
2023-04-26T01:20:15.163Z,1.90
2023-04-26T01:22:42.813Z,1.93
2023-04-26T01:25:12.735Z,1.83
2023-04-26T01:27:40.550Z,1.63
2023-04-26T01:30:09.628Z,1.60
2023-04-26T01:32:37.402Z,1.90
2023-04-26T01:35:05.894Z,1.43
2023-04-26T01:37:33.512Z,1.50
2023-04-26T01:40:01.383Z,2.10
2023-04-26T01:42:29.041Z,1.93
2023-04-26T01:44:57.090Z,2.17
2023-04-26T01:47:26.318Z,2.57
2023-04-26T01:49:54.034Z,2.03
2023-04-26T01:52:22.854Z,2.13
2023-04-26T01:54:51.189Z,2.13
2023-04-26T01:57:21.093Z,2.00
2023-04-26T01:59:48.746Z,2.30
2023-04-26T02:02:18.756Z,2.27
2023-04-26T02:04:47.525Z,2.10
2023-04-26T02:07:15.833Z,2.33
2023-04-26T02:09:46.675Z,2.80
2023-04-26T02:12:14.341Z,1.60
2023-04-26T02:14:41.869Z,2.33
2023-04-26T02:17:11.240Z,1.80
2023-04-26T02:19:38.888Z,2.77
2023-04-26T02:22:06.731Z,2.67
2023-04-26T02:24:34.538Z,2.10
2023-04-26T02:27:04.953Z,2.20
2023-04-26T02:29:43.856Z,1.70
2023-04-26T02:32:14.222Z,2.73
2023-04-26T02:34:43.278Z,2.50
2023-04-26T02:37:10.874Z,1.87
2023-04-26T02:39:39.209Z,1.97
2023-04-26T02:42:10.800Z,2.80
2023-04-26T02:44:39.643Z,2.87
2023-04-26T02:47:07.843Z,2.87
2023-04-26T02:49:35.638Z,2.20
2023-04-26T02:52:03.429Z,2.30
2023-04-26T02:54:32.038Z,2.43
2023-04-26T02:56:59.751Z,2.50
2023-04-26T02:59:28.351Z,2.53
2023-04-26T03:01:56.426Z,2.00
2023-04-26T03:04:24.625Z,2.20
2023-04-26T03:06:52.264Z,2.33
2023-04-26T03:09:20.066Z,2.17
2023-04-26T03:11:50.109Z,2.03
2023-04-26T03:14:18.174Z,2.50
2023-04-26T03:16:48.330Z,3.23
2023-04-26T03:19:16.135Z,2.23
2023-04-26T03:21:44.611Z,3.20
2023-04-26T03:24:12.614Z,2.07
2023-04-26T03:26:40.292Z,2.07
2023-04-26T03:29:08.585Z,3.27
2023-04-26T03:31:36.215Z,3.20
2023-04-26T03:34:03.992Z,2.63
2023-04-26T03:36:31.744Z,2.87
2023-04-26T03:38:59.536Z,2.30
2023-04-26T03:41:27.233Z,2.20
2023-04-26T03:43:56.494Z,2.33
2023-04-26T03:46:24.591Z,3.63
2023-04-26T03:48:53.022Z,2.57
2023-04-26T03:51:21.205Z,2.83
2023-04-26T03:53:48.968Z,2.90
2023-04-26T03:56:17.054Z,2.23
2023-04-26T03:58:45.518Z,1.90
2023-04-26T04:01:13.648Z,2.80
2023-04-26T04:03:41.913Z,2.00
2023-04-26T04:06:10.123Z,2.60
2023-04-26T04:08:38.155Z,2.80
2023-04-26T04:11:06.394Z,3.47
2023-04-26T04:13:37.587Z,2.67
2023-04-26T04:16:06.850Z,2.83
2023-04-26T04:18:34.572Z,3.40
2023-04-26T04:21:02.325Z,2.53
2023-04-26T04:23:29.958Z,3.53
2023-04-26T04:25:57.726Z,2.03
2023-04-26T04:28:25.518Z,2.93
2023-04-26T04:30:53.562Z,3.20
2023-04-26T04:33:21.269Z,3.27
2023-04-26T04:35:49.043Z,3.00
2023-04-26T04:38:17.492Z,3.03
2023-04-26T04:40:49.907Z,2.70
2023-04-26T04:43:19.520Z,2.73
2023-04-26T04:45:49.343Z,2.93
2023-04-26T04:48:17.123Z,3.20
2023-04-26T04:50:45.865Z,3.03
2023-04-26T04:53:13.925Z,3.10
2023-04-26T04:55:42.140Z,2.83
2023-04-26T04:58:10.984Z,3.10
2023-04-26T05:00:38.838Z,3.27
2023-04-26T05:03:27.886Z,2.97
2023-04-26T05:05:55.771Z,3.13
2023-04-26T05:08:23.452Z,2.63
2023-04-26T05:10:51.822Z,2.90
2023-04-26T05:13:19.589Z,3.03
2023-04-26T05:15:47.205Z,4.00
2023-04-26T05:18:14.901Z,2.83
2023-04-26T05:20:42.579Z,2.60
2023-04-26T05:23:10.902Z,2.73
2023-04-26T05:25:39.190Z,2.80
2023-04-26T05:28:29.881Z,3.30
2023-04-26T05:31:16.672Z,3.37
2023-04-26T05:34:00.133Z,3.10
2023-04-26T05:36:32.111Z,2.90
2023-04-26T05:38:59.768Z,3.67
2023-04-26T05:41:27.392Z,3.73
2023-04-26T05:43:55.359Z,3.43
2023-04-26T05:46:23.219Z,3.47
2023-04-26T05:48:51.262Z,3.17
2023-04-26T05:51:18.857Z,3.60
2023-04-26T05:53:46.525Z,2.60
2023-04-26T05:56:14.666Z,3.27
2023-04-26T05:58:42.507Z,3.40
2023-04-26T06:01:12.405Z,2.97
2023-04-26T06:03:40.397Z,3.07
2023-04-26T06:06:08.254Z,3.13
2023-04-26T06:08:39.012Z,3.20
2023-04-26T06:11:07.671Z,1.93
2023-04-26T06:13:35.350Z,3.50
2023-04-26T06:16:03.298Z,2.80
2023-04-26T06:18:31.047Z,4.17
2023-04-26T06:20:58.697Z,3.30
2023-04-26T06:23:26.444Z,2.80
2023-04-26T06:25:54.213Z,3.27
2023-04-26T06:28:21.883Z,2.93
2023-04-26T06:30:49.781Z,2.63
2023-04-26T06:33:17.394Z,3.20
2023-04-26T06:35:45.259Z,2.40
2023-04-26T06:38:14.224Z,2.33
2023-04-26T06:40:41.917Z,3.10
2023-04-26T06:43:10.284Z,2.97
2023-04-26T06:45:38.057Z,2.80
2023-04-26T06:48:06.678Z,3.23
2023-04-26T06:50:39.465Z,2.97
2023-04-26T06:53:07.855Z,2.90
2023-04-26T06:55:35.481Z,2.30
2023-04-26T06:58:03.443Z,3.17
2023-04-26T07:00:31.770Z,2.13
2023-04-26T07:02:59.531Z,2.53
2023-04-26T07:05:27.394Z,2.23
2023-04-26T07:07:55.062Z,3.10
2023-04-26T07:10:22.782Z,2.60
2023-04-26T07:12:50.498Z,2.47
2023-04-26T07:15:18.170Z,2.43
2023-04-26T07:17:45.909Z,2.33
2023-04-26T07:20:15.674Z,2.43
2023-04-26T07:22:43.644Z,2.67
2023-04-26T07:25:11.785Z,1.10
2023-04-26T07:27:39.454Z,2.50
2023-04-26T07:30:07.883Z,2.13
2023-04-26T07:32:36.453Z,2.30
2023-04-26T07:35:15.014Z,2.00
2023-04-26T07:37:44.347Z,2.10
2023-04-26T07:40:13.382Z,2.57
2023-04-26T07:42:41.158Z,2.10
2023-04-26T07:45:09.797Z,2.03
2023-04-26T07:47:37.607Z,2.47
2023-04-26T07:50:06.512Z,1.77
2023-04-26T07:52:34.519Z,2.13
2023-04-26T07:55:02.405Z,1.70
2023-04-26T07:57:31.366Z,3.00
2023-04-26T07:59:58.948Z,1.90
2023-04-26T08:02:40.944Z,2.00
2023-04-26T08:05:13.374Z,1.60
2023-04-26T08:07:42.871Z,1.80
2023-04-26T08:10:11.313Z,2.30
2023-04-26T08:12:39.274Z,1.87
2023-04-26T08:15:08.181Z,2.97
2023-04-26T08:17:36.013Z,2.67
2023-04-26T08:20:06.068Z,2.70
2023-04-26T08:22:33.758Z,1.40
2023-04-26T08:25:01.439Z,1.80
2023-04-26T08:27:30.304Z,1.73
2023-04-26T08:29:57.929Z,1.80
2023-04-26T08:32:26.230Z,1.83
2023-04-26T08:34:54.187Z,1.80
2023-04-26T08:37:21.964Z,1.57
2023-04-26T08:39:49.537Z,2.00
2023-04-26T08:42:18.078Z,1.43
2023-04-26T08:44:46.416Z,1.77
2023-04-26T08:47:18.471Z,1.60
2023-04-26T08:49:48.757Z,1.63
2023-04-26T08:52:22.769Z,1.30
2023-04-26T08:54:52.704Z,1.30
2023-04-26T08:57:22.475Z,1.20
2023-04-26T08:59:51.382Z,1.93
2023-04-26T09:02:21.619Z,1.57
2023-04-26T09:04:51.379Z,2.10
2023-04-26T09:07:35.720Z,2.00
2023-04-26T09:10:05.016Z,1.80
2023-04-26T09:12:32.708Z,1.73
2023-04-26T09:15:01.261Z,1.17
2023-04-26T09:17:38.166Z,2.40
2023-04-26T09:20:21.779Z,1.70
2023-04-26T09:22:54.933Z,1.90
2023-04-26T09:25:31.009Z,1.40
2023-04-26T09:27:59.899Z,1.70
2023-04-26T09:30:28.431Z,2.10
2023-04-26T09:32:58.847Z,1.53
2023-04-26T09:35:31.126Z,2.23
2023-04-26T09:38:17.602Z,1.53
2023-04-26T09:40:50.368Z,1.60
2023-04-26T09:43:20.894Z,1.60
2023-04-26T09:45:55.126Z,1.67
2023-04-26T09:48:31.417Z,1.80
2023-04-26T09:51:14.668Z,2.00
2023-04-26T09:53:47.516Z,1.53
2023-04-26T09:56:20.868Z,1.70
2023-04-26T09:58:52.286Z,1.70
2023-04-26T10:01:20.453Z,1.67
2023-04-26T10:03:48.441Z,1.67
2023-04-26T10:06:16.919Z,1.87
2023-04-26T10:08:45.387Z,1.70
2023-04-26T10:11:14.017Z,1.77
2023-04-26T10:13:42.942Z,2.23
2023-04-26T10:16:10.864Z,1.63
2023-04-26T10:18:38.521Z,2.73
2023-04-26T10:21:32.654Z,1.90
2023-04-26T10:24:00.768Z,2.00
2023-04-26T10:26:54.900Z,1.90
2023-04-26T10:29:46.910Z,1.80
2023-04-26T10:32:18.084Z,1.53
2023-04-26T10:35:13.317Z,1.70
2023-04-26T10:37:59.549Z,2.03
2023-04-26T10:40:31.831Z,1.83
2023-04-26T10:43:20.534Z,2.43
2023-04-26T10:45:49.437Z,2.13
2023-04-26T10:48:31.858Z,1.63
2023-04-26T10:51:01.249Z,1.80
2023-04-26T10:53:48.182Z,2.00
2023-04-26T10:56:27.896Z,1.57
2023-04-26T10:59:36.393Z,1.83
2023-04-26T11:02:11.205Z,2.33
2023-04-26T11:04:55.095Z,2.10
2023-04-26T11:07:39.422Z,2.40
2023-04-26T11:10:10.735Z,1.77
2023-04-26T11:12:42.319Z,2.33
2023-04-26T11:15:12.743Z,1.63
2023-04-26T11:17:40.376Z,2.40
2023-04-26T11:20:16.770Z,1.67
2023-04-26T11:22:44.460Z,2.73
2023-04-26T11:25:15.172Z,1.80
2023-04-26T11:27:46.133Z,1.97
2023-04-26T11:30:14.146Z,2.00
2023-04-26T11:32:41.889Z,2.67
2023-04-26T11:35:10.130Z,2.50
2023-04-26T11:37:37.813Z,2.17
2023-04-26T11:40:07.825Z,2.30
2023-04-26T11:42:35.590Z,1.67
2023-04-26T11:45:07.013Z,1.80
2023-04-26T11:47:35.950Z,1.77
2023-04-26T11:50:04.108Z,1.70
2023-04-26T11:52:32.020Z,2.00
2023-04-26T11:55:06.337Z,2.47
2023-04-26T11:57:34.867Z,2.20
2023-04-26T12:00:15.920Z,1.90
2023-04-26T12:02:48.332Z,2.20
2023-04-26T12:05:23.791Z,1.60
2023-04-26T12:07:59.807Z,1.97
2023-04-26T12:10:32.737Z,1.93
2023-04-26T12:13:01.100Z,1.90
2023-04-26T12:15:31.339Z,1.80
2023-04-26T12:18:06.434Z,2.23
2023-04-26T12:20:36.463Z,2.13
2023-04-26T12:23:14.221Z,2.30
2023-04-26T12:25:55.977Z,2.53
2023-04-26T12:28:24.684Z,2.17
2023-04-26T12:30:52.770Z,1.77
2023-04-26T12:33:23.028Z,2.20
2023-04-26T12:35:51.573Z,2.33
2023-04-26T12:38:19.824Z,2.53
2023-04-26T12:40:47.600Z,2.25
2023-04-26T12:43:16.761Z,2.30
2023-04-26T12:45:44.452Z,2.42
2023-04-26T12:48:12.562Z,1.95
2023-04-26T12:50:41.374Z,2.38
2023-04-26T12:53:10.896Z,2.03
2023-04-26T12:55:38.690Z,2.50
2023-04-26T12:58:06.438Z,2.13
2023-04-26T13:00:34.147Z,1.92
2023-04-26T13:03:02.706Z,1.70
2023-04-26T13:05:32.282Z,1.92
2023-04-26T13:08:02.133Z,2.00
2023-04-26T13:10:29.840Z,2.10
2023-04-26T13:12:58.326Z,2.00
2023-04-26T13:15:26.859Z,2.27
2023-04-26T13:17:54.577Z,2.10
2023-04-26T13:20:23.696Z,2.88
2023-04-26T13:22:53.399Z,2.25
2023-04-26T13:25:21.304Z,2.08
2023-04-26T13:27:49.067Z,2.10
2023-04-26T13:30:16.679Z,2.15
2023-04-26T13:32:44.487Z,1.80
2023-04-26T13:35:12.214Z,2.00
2023-04-26T13:37:39.953Z,1.95
2023-04-26T13:40:11.148Z,2.40
2023-04-26T13:42:39.560Z,1.92
2023-04-26T13:45:17.076Z,2.05
2023-04-26T13:47:46.471Z,1.38
2023-04-26T13:50:14.262Z,2.45
2023-04-26T13:52:42.201Z,2.22
2023-04-26T13:55:10.194Z,1.50
2023-04-26T13:57:37.891Z,1.83
2023-04-26T14:00:08.196Z,2.00
2023-04-26T14:02:39.774Z,2.13
2023-04-26T14:05:09.159Z,2.20
2023-04-26T14:07:36.914Z,2.00
2023-04-26T14:10:04.883Z,2.10
2023-04-26T14:12:32.545Z,2.00
2023-04-26T14:15:03.971Z,2.08
2023-04-26T14:17:33.278Z,2.47
2023-04-26T14:20:01.166Z,2.10
2023-04-26T14:22:29.379Z,1.90
2023-04-26T14:24:57.239Z,1.75
2023-04-26T14:27:24.964Z,2.70
2023-04-26T14:29:53.098Z,2.30
2023-04-26T14:32:20.799Z,2.60
2023-04-26T14:34:48.396Z,2.07
2023-04-26T14:37:16.198Z,2.08
2023-04-26T14:39:43.851Z,1.90
2023-04-26T14:42:12.448Z,2.47
2023-04-26T14:44:40.496Z,1.90
2023-04-26T14:47:08.422Z,2.13
2023-04-26T14:49:36.197Z,2.25
2023-04-26T14:52:04.272Z,2.33
2023-04-26T14:54:40.544Z,2.25
2023-04-26T14:57:09.188Z,2.03
2023-04-26T14:59:37.324Z,1.98
2023-04-26T15:02:05.591Z,2.00
2023-04-26T15:04:36.525Z,2.10
2023-04-26T15:07:04.455Z,2.38
2023-04-26T15:09:32.740Z,1.92
2023-04-26T15:12:02.478Z,2.15
2023-04-26T15:14:33.515Z,2.22
2023-04-26T15:17:01.494Z,2.08
2023-04-26T15:19:29.166Z,2.10
2023-04-26T15:21:56.962Z,2.33
2023-04-26T15:24:24.836Z,2.50
2023-04-26T15:26:52.900Z,2.07
2023-04-26T15:29:20.495Z,2.40
2023-04-26T15:31:48.388Z,2.50
2023-04-26T15:34:16.324Z,2.37
2023-04-26T15:36:44.330Z,2.40
2023-04-26T15:39:12.516Z,2.07
2023-04-26T15:41:40.397Z,2.30
2023-04-26T15:44:09.033Z,2.90
2023-04-26T15:46:38.144Z,2.07
2023-04-26T15:49:06.559Z,2.10
2023-04-26T15:51:34.434Z,2.60
2023-04-26T15:54:02.231Z,2.43
2023-04-26T15:56:29.949Z,2.10
2023-04-26T15:58:57.667Z,3.30
2023-04-26T16:01:25.735Z,2.83
2023-04-26T16:03:53.546Z,2.47
2023-04-26T16:06:21.632Z,2.38
2023-04-26T16:08:49.231Z,2.10
2023-04-26T16:11:16.912Z,1.90
2023-04-26T16:13:44.734Z,1.80
2023-04-26T16:16:12.767Z,1.90
2023-04-26T16:18:40.854Z,1.90
2023-04-26T16:21:10.051Z,2.30
2023-04-26T16:23:38.338Z,2.28
2023-04-26T16:26:06.132Z,2.03
2023-04-26T16:28:34.275Z,2.20
2023-04-26T16:31:02.182Z,1.92
2023-04-26T16:33:29.949Z,1.90
2023-04-26T16:35:57.831Z,1.97
2023-04-26T16:38:25.909Z,1.93
2023-04-26T16:40:58.630Z,2.23
2023-04-26T16:43:31.993Z,2.30
2023-04-26T16:46:05.452Z,2.60
2023-04-26T16:48:36.231Z,2.10
2023-04-26T16:51:07.587Z,2.08
2023-04-26T16:53:36.207Z,2.25
2023-04-26T16:56:04.408Z,2.60
2023-04-26T16:58:32.402Z,2.00
2023-04-26T17:01:00.135Z,2.00
2023-04-26T17:03:28.465Z,1.73
2023-04-26T17:05:56.439Z,2.53
2023-04-26T17:08:24.228Z,2.47
2023-04-26T17:10:52.136Z,2.40
2023-04-26T17:13:20.373Z,2.08
2023-04-26T17:15:48.275Z,2.60
2023-04-26T17:18:16.096Z,2.50
2023-04-26T17:20:44.396Z,2.50
2023-04-26T17:23:12.409Z,2.60
2023-04-26T17:25:40.358Z,2.20
2023-04-26T17:28:08.263Z,2.47
2023-04-26T17:30:36.846Z,2.40
2023-04-26T17:33:05.338Z,2.00
2023-04-26T17:35:35.812Z,2.13
2023-04-26T17:38:03.875Z,2.40
2023-04-26T17:40:31.744Z,2.87
2023-04-26T17:42:59.689Z,2.43
2023-04-26T17:45:27.642Z,2.20
2023-04-26T17:47:55.959Z,3.10
2023-04-26T17:50:24.065Z,3.00
2023-04-26T17:52:52.037Z,2.20
2023-04-26T17:55:23.012Z,2.67
2023-04-26T17:57:50.965Z,2.70
2023-04-26T18:00:19.102Z,2.47
2023-04-26T18:02:47.452Z,2.50
2023-04-26T18:05:16.336Z,2.57
2023-04-26T18:07:44.078Z,2.13
2023-04-26T18:10:11.769Z,2.73
2023-04-26T18:12:39.853Z,2.37
2023-04-26T18:15:08.407Z,2.50
2023-04-26T18:17:36.453Z,2.10
2023-04-26T18:20:05.194Z,2.53
2023-04-26T18:22:33.332Z,2.50
2023-04-26T18:25:01.060Z,2.20
2023-04-26T18:27:28.797Z,2.17
2023-04-26T18:29:56.479Z,2.43
2023-04-26T18:32:24.809Z,2.37
2023-04-26T18:34:52.649Z,2.27
2023-04-26T18:37:20.936Z,2.70
2023-04-26T18:39:48.841Z,2.80
2023-04-26T18:42:16.660Z,2.20
2023-04-26T18:44:44.710Z,2.67
2023-04-26T18:47:12.365Z,2.37
2023-04-26T18:49:40.097Z,2.20
2023-04-26T18:52:09.882Z,2.10
2023-04-26T18:54:39.031Z,2.30
2023-04-26T18:57:06.832Z,2.10
2023-04-26T18:59:34.623Z,2.60
2023-04-26T19:02:04.179Z,2.60
2023-04-26T19:04:32.347Z,2.20
2023-04-26T19:07:01.293Z,2.33
2023-04-26T19:09:46.685Z,2.50
2023-04-26T19:12:21.855Z,3.13
2023-04-26T19:14:49.568Z,2.53
2023-04-26T19:17:17.201Z,2.83
2023-04-26T19:19:44.955Z,2.87
2023-04-26T19:22:13.305Z,3.00
2023-04-26T19:24:41.520Z,2.97
2023-04-26T19:27:09.517Z,2.90
2023-04-26T19:29:37.182Z,3.13
2023-04-26T19:32:07.010Z,3.23
2023-04-26T19:34:38.411Z,2.90
2023-04-26T19:37:07.075Z,3.20
2023-04-26T19:39:34.748Z,2.67
2023-04-26T19:42:03.270Z,2.50
2023-04-26T19:44:31.317Z,2.40
2023-04-26T19:46:59.927Z,2.30
2023-04-26T19:49:29.114Z,2.70
2023-04-26T19:52:04.260Z,2.40
2023-04-26T19:54:32.431Z,2.40
2023-04-26T19:57:00.160Z,2.67
2023-04-26T19:59:28.145Z,2.63
2023-04-26T20:01:56.074Z,1.80
2023-04-26T20:04:24.114Z,2.00
2023-04-26T20:06:52.487Z,2.57
2023-04-26T20:09:20.903Z,2.20
2023-04-26T20:11:49.810Z,1.93
2023-04-26T20:14:17.935Z,1.83
2023-04-26T20:16:45.807Z,1.90
2023-04-26T20:19:14.569Z,2.20
2023-04-26T20:21:42.321Z,1.97
2023-04-26T20:24:10.054Z,1.97
2023-04-26T20:26:37.702Z,1.63
2023-04-26T20:29:05.601Z,1.80
2023-04-26T20:31:33.656Z,1.67
2023-04-26T20:34:01.748Z,1.67
2023-04-26T20:36:29.709Z,1.73
2023-04-26T20:38:57.428Z,1.90
2023-04-26T20:41:25.240Z,2.00
2023-04-26T20:43:53.718Z,2.00
2023-04-26T20:46:21.799Z,1.80
2023-04-26T20:48:49.807Z,1.67
2023-04-26T20:51:17.682Z,2.00
2023-04-26T20:53:45.634Z,1.60
2023-04-26T20:56:13.346Z,2.20
2023-04-26T20:58:41.212Z,2.50
2023-04-26T21:01:10.015Z,1.80
2023-04-26T21:03:39.066Z,2.23
2023-04-26T21:06:07.027Z,2.20
2023-04-26T21:08:36.619Z,2.47
2023-04-26T21:11:05.451Z,2.30
2023-04-26T21:13:33.266Z,2.50
2023-04-26T21:16:02.299Z,2.07
2023-04-26T21:18:30.339Z,2.50
2023-04-26T21:20:58.182Z,2.13
2023-04-26T21:23:26.414Z,2.27
2023-04-26T21:25:54.242Z,2.00
2023-04-26T21:28:22.650Z,2.63
2023-04-26T21:30:50.466Z,2.07
2023-04-26T21:33:18.180Z,2.47
2023-04-26T21:35:45.924Z,2.10
2023-04-26T21:38:13.596Z,2.03
2023-04-26T21:40:41.291Z,2.17
2023-04-26T21:43:08.835Z,2.50
2023-04-26T21:45:36.632Z,2.40
2023-04-26T21:48:04.778Z,2.83
2023-04-26T21:50:33.029Z,2.40
2023-04-26T21:53:00.708Z,2.50
2023-04-26T21:55:28.438Z,2.60
2023-04-26T21:57:56.149Z,2.23
2023-04-26T22:00:24.339Z,1.97
2023-04-26T22:02:52.991Z,2.03
2023-04-26T22:05:21.093Z,2.00
2023-04-26T22:07:48.804Z,2.10
2023-04-26T22:10:16.871Z,1.90
2023-04-26T22:12:44.602Z,2.10
2023-04-26T22:15:12.431Z,1.70
2023-04-26T22:17:40.145Z,2.10
2023-04-26T22:20:08.707Z,1.73
2023-04-26T22:22:36.470Z,1.70
2023-04-26T22:25:04.590Z,1.47
2023-04-26T22:27:32.389Z,1.67
2023-04-26T22:30:06.190Z,1.70
2023-04-26T22:32:40.533Z,1.70
2023-04-26T22:35:08.427Z,1.70
2023-04-26T22:37:36.183Z,1.40
2023-04-26T22:40:04.388Z,1.47
2023-04-26T22:42:35.829Z,1.90
2023-04-26T22:45:03.882Z,1.80
2023-04-26T22:47:31.632Z,1.93
2023-04-26T22:49:59.466Z,1.60
2023-04-26T22:52:31.557Z,1.60
2023-04-26T22:55:00.861Z,1.90
2023-04-26T22:57:30.352Z,1.77
2023-04-26T22:59:58.448Z,1.73
2023-04-26T23:02:26.462Z,1.50
2023-04-26T23:04:54.265Z,1.40
2023-04-26T23:07:21.995Z,2.00
2023-04-26T23:09:49.757Z,2.10
2023-04-26T23:12:19.909Z,1.50
2023-04-26T23:14:48.579Z,1.70
2023-04-26T23:17:16.544Z,1.77
2023-04-26T23:19:44.223Z,1.37
2023-04-26T23:22:11.832Z,1.90
2023-04-26T23:24:39.460Z,1.50
2023-04-26T23:27:07.065Z,1.73
2023-04-26T23:29:34.929Z,1.70
2023-04-26T23:32:02.673Z,1.90
2023-04-26T23:34:30.453Z,1.47
2023-04-26T23:36:58.815Z,1.73
2023-04-26T23:39:36.353Z,1.50
2023-04-26T23:42:04.222Z,1.60
2023-04-26T23:44:31.827Z,1.70
2023-04-26T23:46:59.537Z,1.67
2023-04-26T23:49:27.638Z,1.70
2023-04-26T23:51:55.413Z,1.53
2023-04-26T23:54:23.130Z,1.90
2023-04-26T23:56:50.950Z,1.20
2023-04-26T23:59:18.605Z,1.60
